createdAt,value
2018-12-01T00:00:24.934Z,8.18
2018-12-01T00:02:53.404Z,15.25
2018-12-01T00:05:21.815Z,21.80
2018-12-01T00:07:50.524Z,26.87
2018-12-01T00:10:19.230Z,19.62
2018-12-01T00:12:47.614Z,8.00
2018-12-01T00:15:18.401Z,10.30
2018-12-01T00:17:47.086Z,19.73
2018-12-01T00:20:19.463Z,15.63
2018-12-01T00:22:48.119Z,11.65
2018-12-01T00:25:16.492Z,6.22
2018-12-01T00:27:44.884Z,12.53
2018-12-01T00:30:19.171Z,11.18
2018-12-01T00:32:49.437Z,8.65
2018-12-01T00:35:17.830Z,12.00
2018-12-01T00:37:46.232Z,16.87
2018-12-01T00:40:16.596Z,5.53
2018-12-01T00:42:44.999Z,12.20
2018-12-01T00:45:15.536Z,15.40
2018-12-01T00:47:45.095Z,13.22
2018-12-01T00:50:15.369Z,15.60
2018-12-01T00:52:43.818Z,9.93
2018-12-01T00:55:14.476Z,7.28
2018-12-01T00:57:42.901Z,15.08
2018-12-01T01:00:13.225Z,11.53
2018-12-01T01:02:41.916Z,4.40
2018-12-01T01:05:10.593Z,9.15
2018-12-01T01:07:38.982Z,10.13
2018-12-01T01:10:09.978Z,29.42
2018-12-01T01:12:38.339Z,12.95
2018-12-01T01:15:07.860Z,5.42
2018-12-01T01:17:37.114Z,8.15
2018-12-01T01:20:09.430Z,7.95
2018-12-01T01:22:37.847Z,16.90
2018-12-01T01:25:07.386Z,15.18
2018-12-01T01:27:35.752Z,10.55
2018-12-01T01:30:08.236Z,8.50
2018-12-01T01:32:37.172Z,12.63
2018-12-01T01:35:05.856Z,16.10
2018-12-01T01:37:34.576Z,11.90
2018-12-01T01:40:03.273Z,11.18
2018-12-01T01:42:31.660Z,6.03
2018-12-01T01:45:00.054Z,6.08
2018-12-01T01:47:28.419Z,5.33
2018-12-01T01:49:56.783Z,13.18
2018-12-01T01:52:25.179Z,9.35
2018-12-01T01:54:54.130Z,13.93
2018-12-01T01:57:22.591Z,11.18
2018-12-01T01:59:51.531Z,13.15
2018-12-01T02:02:19.921Z,8.18
2018-12-01T02:04:48.289Z,5.80
2018-12-01T02:07:16.719Z,11.30
2018-12-01T02:09:45.395Z,8.30
2018-12-01T02:12:14.313Z,15.55
2018-12-01T02:14:42.695Z,5.37
2018-12-01T02:17:11.103Z,11.33
2018-12-01T02:19:39.465Z,11.43
2018-12-01T02:22:07.903Z,9.90
2018-12-01T02:24:36.260Z,21.12
2018-12-01T02:27:04.633Z,8.75
2018-12-01T02:29:33.033Z,10.85
2018-12-01T02:32:01.552Z,12.30
2018-12-01T02:34:29.829Z,13.18
2018-12-01T02:36:58.229Z,8.38
2018-12-01T02:39:26.599Z,6.97
2018-12-01T02:41:56.117Z,7.97
2018-12-01T02:46:42.351Z,11.25
2018-12-01T02:49:11.132Z,15.10
2018-12-01T02:51:39.490Z,13.72
2018-12-01T02:54:07.947Z,13.43
2018-12-01T02:56:36.310Z,8.75
2018-12-01T02:59:04.700Z,14.87
2018-12-01T03:01:33.121Z,15.85
2018-12-01T03:04:01.739Z,8.08
2018-12-01T03:06:30.389Z,18.02
2018-12-01T03:08:58.811Z,15.38
2018-12-01T03:11:27.179Z,8.60
2018-12-01T03:13:55.549Z,10.55
2018-12-01T03:16:24.559Z,18.27
2018-12-01T03:18:53.874Z,10.00
2018-12-01T03:21:22.546Z,11.70
2018-12-01T03:23:50.943Z,7.15
2018-12-01T03:26:19.589Z,14.65
2018-12-01T03:28:47.961Z,6.03
2018-12-01T03:31:16.350Z,11.00
2018-12-01T03:33:44.740Z,6.47
2018-12-01T03:36:13.144Z,12.85
2018-12-01T03:38:41.561Z,7.20
2018-12-01T03:41:10.215Z,13.30
2018-12-01T03:43:38.617Z,12.60
2018-12-01T03:46:07.203Z,17.07
2018-12-01T03:48:35.629Z,31.97
2018-12-01T03:51:04.020Z,13.80
2018-12-01T03:53:32.411Z,22.58
2018-12-01T03:56:00.794Z,10.03
2018-12-01T03:58:29.152Z,9.70
2018-12-01T04:00:57.582Z,5.90
2018-12-01T04:03:26.241Z,17.62
2018-12-01T04:05:54.880Z,6.45
2018-12-01T04:08:23.279Z,9.00
2018-12-01T04:10:52.300Z,13.48
2018-12-01T04:13:20.661Z,8.50
2018-12-01T04:15:49.042Z,10.85
2018-12-01T04:18:17.990Z,8.53
2018-12-01T04:20:46.451Z,17.98
2018-12-01T04:23:14.831Z,16.48
2018-12-01T04:25:43.214Z,16.97
2018-12-01T04:28:12.182Z,19.70
2018-12-01T04:30:40.554Z,8.95
2018-12-01T04:33:08.951Z,14.95
2018-12-01T04:35:37.345Z,15.72
2018-12-01T04:38:06.332Z,10.38
2018-12-01T04:40:34.719Z,8.95
2018-12-01T04:43:03.108Z,19.25
2018-12-01T04:45:31.502Z,8.45
2018-12-01T04:47:59.884Z,5.55
2018-12-01T04:50:28.252Z,14.25
2018-12-01T04:52:56.636Z,8.08
2018-12-01T04:55:25.003Z,15.08
2018-12-01T04:57:53.443Z,13.90
2018-12-01T05:00:22.160Z,16.20
2018-12-01T05:02:50.523Z,7.42
2018-12-01T05:05:20.949Z,14.25
2018-12-01T05:07:49.674Z,7.33
2018-12-01T05:10:19.214Z,17.30
2018-12-01T05:12:47.895Z,21.87
2018-12-01T05:15:17.136Z,15.78
2018-12-01T05:17:45.891Z,13.45
2018-12-01T05:20:20.431Z,9.75
2018-12-01T05:22:49.205Z,10.93
2018-12-01T05:25:17.572Z,11.15
2018-12-01T05:27:46.138Z,20.05
2018-12-01T05:30:14.566Z,8.28
2018-12-01T05:32:43.231Z,14.40
2018-12-01T05:35:20.241Z,10.58
2018-12-01T05:37:49.237Z,16.35
2018-12-01T05:40:17.638Z,11.78
2018-12-01T05:42:46.291Z,12.28
2018-12-01T05:45:15.852Z,14.28
2018-12-01T05:47:44.216Z,16.42
2018-12-01T05:50:13.725Z,23.73
2018-12-01T05:52:42.108Z,10.58
2018-12-01T05:55:11.645Z,9.83
2018-12-01T05:57:40.049Z,6.15
2018-12-01T06:00:12.600Z,16.65
2018-12-01T06:02:41.049Z,8.43
2018-12-01T06:05:10.722Z,10.20
2018-12-01T06:07:39.236Z,6.83
2018-12-01T06:10:17.654Z,6.85
2018-12-01T06:12:46.568Z,8.40
2018-12-01T06:15:15.971Z,28.40
2018-12-01T06:17:44.540Z,21.02
2018-12-01T06:20:14.721Z,19.52
2018-12-01T06:22:43.081Z,16.90
2018-12-01T06:25:13.932Z,23.20
2018-12-01T06:27:42.637Z,19.30
2018-12-01T06:30:14.099Z,10.98
2018-12-01T06:32:42.760Z,14.75
2018-12-01T06:35:11.170Z,11.63
2018-12-01T06:37:39.835Z,14.87
2018-12-01T06:40:12.174Z,15.88
2018-12-01T06:42:40.472Z,12.43
2018-12-01T06:45:10.206Z,22.98
2018-12-01T06:47:39.102Z,23.20
2018-12-01T06:50:22.964Z,15.90
2018-12-01T06:52:53.048Z,10.13
2018-12-01T06:55:22.705Z,18.90
2018-12-01T06:57:51.098Z,16.48
2018-12-01T07:00:21.703Z,31.45
2018-12-01T07:02:50.328Z,10.35
2018-12-01T07:05:18.959Z,8.20
2018-12-01T07:07:47.361Z,16.32
2018-12-01T07:10:16.961Z,19.85
2018-12-01T07:12:47.645Z,18.98
2018-12-01T07:15:20.844Z,23.60
2018-12-01T07:17:49.565Z,18.40
2018-12-01T07:20:18.445Z,21.45
2018-12-01T07:22:46.822Z,19.55
2018-12-01T07:25:15.552Z,9.50
2018-12-01T07:27:43.938Z,26.42
2018-12-01T07:30:13.566Z,28.75
2018-12-01T07:32:42.603Z,24.85
2018-12-01T07:35:11.671Z,14.25
2018-12-01T07:37:40.262Z,21.87
2018-12-01T07:40:13.324Z,20.50
2018-12-01T07:42:41.713Z,28.50
2018-12-01T07:45:14.197Z,18.75
2018-12-01T07:47:42.588Z,14.60
2018-12-01T07:50:18.522Z,14.85
2018-12-01T07:52:49.384Z,23.22
2018-12-01T07:55:17.751Z,14.13
2018-12-01T07:57:46.191Z,16.00
2018-12-01T08:00:15.820Z,15.45
2018-12-01T08:02:45.873Z,35.00
2018-12-01T08:05:14.345Z,24.45
2018-12-01T08:07:42.972Z,30.25
2018-12-01T08:10:12.487Z,20.65
2018-12-01T08:12:40.911Z,21.77
2018-12-01T08:15:14.387Z,19.77
2018-12-01T08:17:42.818Z,14.23
2018-12-01T08:20:13.259Z,21.75
2018-12-01T08:22:41.832Z,17.92
2018-12-01T08:25:12.911Z,21.27
2018-12-01T08:27:41.297Z,18.02
2018-12-01T08:30:15.583Z,22.93
2018-12-01T08:32:44.236Z,32.05
2018-12-01T08:35:12.648Z,21.05
2018-12-01T08:37:41.038Z,18.00
2018-12-01T08:40:10.934Z,26.85
2018-12-01T08:42:39.349Z,24.55
2018-12-01T08:45:10.395Z,29.52
2018-12-01T08:47:39.462Z,18.32
2018-12-01T08:50:13.710Z,15.72
2018-12-01T08:52:42.584Z,16.80
2018-12-01T08:55:12.870Z,18.77
2018-12-01T08:57:41.327Z,31.50
2018-12-01T09:00:17.909Z,24.37
2018-12-01T09:02:47.891Z,28.90
2018-12-01T09:05:16.276Z,23.30
2018-12-01T09:07:44.681Z,26.95
2018-12-01T09:10:13.127Z,26.75
2018-12-01T09:12:41.980Z,14.50
2018-12-01T09:15:11.347Z,15.35
2018-12-01T09:17:40.270Z,17.65
2018-12-01T09:20:12.947Z,21.27
2018-12-01T09:22:43.870Z,15.38
2018-12-01T09:25:16.396Z,13.88
2018-12-01T09:27:45.408Z,14.80
2018-12-01T09:30:19.126Z,19.95
2018-12-01T09:32:47.653Z,22.00
2018-12-01T09:35:16.035Z,18.65
2018-12-01T09:37:44.435Z,21.00
2018-12-01T09:40:14.130Z,16.65
2018-12-01T09:42:42.605Z,15.50
2018-12-01T09:45:14.245Z,15.95
2018-12-01T09:47:43.755Z,12.82
2018-12-01T09:50:14.171Z,13.22
2018-12-01T09:52:42.846Z,23.62
2018-12-01T09:55:13.426Z,14.05
2018-12-01T09:57:42.796Z,23.32
2018-12-01T10:00:14.483Z,14.60
2018-12-01T10:02:43.505Z,12.03
2018-12-01T10:05:13.268Z,15.83
2018-12-01T10:07:41.677Z,17.23
2018-12-01T10:10:12.535Z,8.58
2018-12-01T10:12:40.932Z,7.85
2018-12-01T10:15:12.673Z,12.85
2018-12-01T10:17:41.070Z,11.57
2018-12-01T10:20:13.188Z,9.83
2018-12-01T10:22:41.776Z,12.37
2018-12-01T10:25:12.514Z,5.37
2018-12-01T10:27:40.938Z,6.78
2018-12-01T10:30:15.543Z,11.12
2018-12-01T10:32:44.264Z,7.92
2018-12-01T10:35:14.140Z,14.68
2018-12-01T10:37:42.583Z,7.75
2018-12-01T10:40:12.695Z,12.60
2018-12-01T10:42:41.131Z,6.58
2018-12-01T10:45:12.806Z,9.85
2018-12-01T10:47:41.542Z,9.20
2018-12-01T10:50:14.001Z,5.85
2018-12-01T10:52:42.472Z,8.48
2018-12-01T10:55:17.514Z,10.00
2018-12-01T10:57:46.182Z,6.22
2018-12-01T11:00:19.935Z,7.40
2018-12-01T11:02:55.710Z,9.65
2018-12-01T11:05:22.354Z,7.03
2018-12-01T11:07:51.374Z,15.43
2018-12-01T11:10:19.755Z,8.98
2018-12-01T11:12:48.471Z,16.62
2018-12-01T11:15:17.074Z,10.32
2018-12-01T11:17:45.515Z,10.88
2018-12-01T11:20:13.925Z,5.87
2018-12-01T11:22:42.583Z,5.62
2018-12-01T11:25:12.008Z,7.30
2018-12-01T11:27:40.468Z,4.17
2018-12-01T11:30:16.252Z,5.92
2018-12-01T11:32:44.826Z,5.45
2018-12-01T11:35:13.260Z,10.58
2018-12-01T11:37:41.748Z,4.85
2018-12-01T11:40:13.486Z,7.95
2018-12-01T11:42:42.472Z,14.13
2018-12-01T11:45:12.102Z,10.70
2018-12-01T11:47:40.571Z,5.28
2018-12-01T11:50:18.661Z,3.92
2018-12-01T11:52:49.228Z,3.60
2018-12-01T11:55:21.699Z,5.62
2018-12-01T11:57:50.645Z,11.15
2018-12-01T12:00:24.389Z,6.40
2018-12-01T12:02:52.992Z,5.37
2018-12-01T12:05:21.547Z,8.38
2018-12-01T12:08:01.140Z,11.48
2018-12-01T12:10:29.723Z,7.53
2018-12-01T12:12:58.265Z,6.87
2018-12-01T12:15:27.332Z,5.20
2018-12-01T12:17:58.379Z,10.00
2018-12-01T12:20:26.829Z,17.45
2018-12-01T12:22:55.279Z,13.13
2018-12-01T12:25:24.012Z,16.45
2018-12-01T12:27:52.449Z,5.15
2018-12-01T12:30:25.839Z,9.05
2018-12-01T12:32:50.663Z,11.93
2018-12-01T12:35:19.094Z,4.90
2018-12-01T12:37:47.506Z,8.80
2018-12-01T12:40:18.169Z,6.92
2018-12-01T12:42:46.771Z,6.67
2018-12-01T12:45:15.683Z,10.88
2018-12-01T12:47:44.284Z,6.47
2018-12-01T12:50:15.626Z,5.75
2018-12-01T12:52:44.918Z,7.37
2018-12-01T12:55:17.378Z,5.40
2018-12-01T12:57:45.731Z,4.95
2018-12-01T13:00:19.246Z,11.35
2018-12-01T13:02:49.918Z,30.45
2018-12-01T13:05:21.696Z,6.15
2018-12-01T13:07:50.075Z,6.08
2018-12-01T13:10:19.512Z,5.58
2018-12-01T13:12:47.924Z,18.00
2018-12-01T13:15:16.918Z,12.88
2018-12-01T13:17:45.888Z,6.97
2018-12-01T13:20:15.612Z,14.15
2018-12-01T13:22:44.324Z,8.98
2018-12-01T13:25:13.934Z,11.15
2018-12-01T13:28:16.987Z,10.38
2018-12-01T13:30:58.675Z,11.25
2018-12-01T13:33:27.219Z,10.35
2018-12-01T13:35:56.567Z,13.20
2018-12-01T13:38:24.977Z,15.43
2018-12-01T13:40:53.402Z,6.62
2018-12-01T13:43:21.824Z,10.90
2018-12-01T13:45:50.227Z,5.50
2018-12-01T13:48:18.685Z,13.65
2018-12-01T13:50:47.099Z,11.68
2018-12-01T13:53:15.642Z,14.90
2018-12-01T13:55:44.067Z,5.55
2018-12-01T13:58:12.690Z,13.68
2018-12-01T14:00:41.382Z,7.10
2018-12-01T14:03:10.198Z,12.18
2018-12-01T14:05:39.630Z,10.88
2018-12-01T14:08:08.011Z,10.28
2018-12-01T14:10:38.374Z,8.05
2018-12-01T14:13:08.444Z,8.68
2018-12-01T14:15:36.856Z,12.98
2018-12-01T14:18:06.129Z,11.53
2018-12-01T14:20:34.555Z,7.72
2018-12-01T14:23:03.293Z,6.70
2018-12-01T14:25:31.705Z,9.75
2018-12-01T14:28:15.827Z,23.70
2018-12-01T14:30:44.204Z,10.55
2018-12-01T14:33:13.143Z,3.90
2018-12-01T14:35:41.720Z,9.90
2018-12-01T14:38:14.628Z,8.33
2018-12-01T14:40:44.148Z,5.28
2018-12-01T14:43:12.654Z,8.18
2018-12-01T14:45:41.976Z,6.65
2018-12-01T14:48:10.361Z,5.15
2018-12-01T14:50:38.725Z,3.52
2018-12-01T14:53:08.416Z,2.77
2018-12-01T14:55:37.074Z,9.95
2018-12-01T14:58:06.288Z,3.40
2018-12-01T15:00:34.979Z,7.53
2018-12-01T15:03:03.455Z,1.77
2018-12-01T15:05:32.061Z,7.60
2018-12-01T15:08:00.463Z,3.08
2018-12-01T15:10:28.862Z,5.15
2018-12-01T15:12:57.241Z,2.00
2018-12-01T15:15:28.301Z,6.15
2018-12-01T15:17:56.766Z,1.72
2018-12-01T15:20:26.129Z,2.40
2018-12-01T15:22:55.988Z,5.37
2018-12-01T15:25:25.553Z,8.73
2018-12-01T15:27:54.041Z,3.42
2018-12-01T15:30:24.244Z,4.28
2018-12-01T15:33:26.067Z,7.03
2018-12-01T15:35:54.503Z,1.95
2018-12-01T15:38:23.448Z,4.10
2018-12-01T15:40:52.130Z,2.55
2018-12-01T15:43:20.874Z,5.12
2018-12-01T15:45:49.494Z,9.25
2018-12-01T15:48:17.933Z,7.12
2018-12-01T15:50:46.327Z,8.03
2018-12-01T15:53:15.613Z,1.85
2018-12-01T15:55:44.037Z,4.00
2018-12-01T15:58:12.966Z,8.58
2018-12-01T16:00:42.657Z,2.30
2018-12-01T16:03:11.069Z,9.20
2018-12-01T16:05:39.952Z,3.00
2018-12-01T16:08:09.439Z,10.10
2018-12-01T16:10:37.829Z,2.85
2018-12-01T16:13:13.924Z,4.20
2018-12-01T16:15:44.016Z,8.88
2018-12-01T16:18:12.595Z,13.08
2018-12-01T16:20:41.313Z,3.52
2018-12-01T16:23:09.918Z,5.70
2018-12-01T16:25:38.664Z,6.37
2018-12-01T16:28:08.223Z,4.37
2018-12-01T16:30:40.543Z,6.67
2018-12-01T16:33:11.701Z,5.35
2018-12-01T16:35:40.439Z,2.10
2018-12-01T16:38:10.661Z,10.30
2018-12-01T16:40:49.533Z,6.20
2018-12-01T16:43:17.990Z,1.92
2018-12-01T16:45:47.805Z,1.37
2018-12-01T16:48:16.205Z,4.03
2018-12-01T16:50:44.621Z,1.47
2018-12-01T16:53:14.398Z,4.20
2018-12-01T16:55:43.025Z,3.25
2018-12-01T16:58:11.583Z,4.15
2018-12-01T17:00:40.204Z,5.95
2018-12-01T17:03:09.725Z,4.12
2018-12-01T17:05:40.328Z,7.62
2018-12-01T17:08:08.773Z,9.88
2018-12-01T17:10:37.488Z,4.15
2018-12-01T17:13:07.362Z,3.17
2018-12-01T17:15:36.003Z,4.22
2018-12-01T17:18:05.059Z,8.45
2018-12-01T17:20:33.708Z,5.15
2018-12-01T17:23:02.329Z,1.07
2018-12-01T17:25:30.817Z,2.95
2018-12-01T17:27:59.622Z,1.10
2018-12-01T17:30:29.716Z,3.12
2018-12-01T17:32:59.590Z,5.80
2018-12-01T17:35:30.111Z,2.83
2018-12-01T17:38:00.051Z,8.28
2018-12-01T17:41:10.845Z,5.37
2018-12-01T17:43:51.610Z,8.13
2018-12-01T17:46:20.135Z,5.83
2018-12-01T17:48:48.598Z,4.40
2018-12-01T17:51:17.229Z,1.17
2018-12-01T17:53:47.839Z,4.50
2018-12-01T17:56:16.226Z,2.15
2018-12-01T17:58:44.681Z,2.92
2018-12-01T18:01:13.169Z,2.65
2018-12-01T18:03:41.884Z,2.80
2018-12-01T18:06:11.879Z,1.67
2018-12-01T18:08:40.542Z,6.17
2018-12-01T18:11:10.036Z,3.80
2018-12-01T18:13:38.450Z,0.85
2018-12-01T18:16:07.345Z,0.50
2018-12-01T18:18:35.742Z,1.35
2018-12-01T18:21:04.264Z,3.60
2018-12-01T18:23:32.924Z,4.00
2018-12-01T18:26:01.315Z,0.50
2018-12-01T18:28:34.965Z,1.57
2018-12-01T18:31:06.668Z,2.05
2018-12-01T18:33:37.164Z,0.45
2018-12-01T18:36:07.123Z,0.88
2018-12-01T18:38:35.815Z,0.50
2018-12-01T18:41:04.270Z,0.85
2018-12-01T18:43:32.686Z,6.92
2018-12-01T18:46:02.461Z,3.17
2018-12-01T18:48:31.182Z,0.50
2018-12-01T18:50:59.571Z,0.70
2018-12-01T18:53:27.955Z,7.30
2018-12-01T18:55:57.225Z,1.02
2018-12-01T18:58:25.617Z,2.83
2018-12-01T19:00:56.353Z,2.15
2018-12-01T19:03:28.200Z,0.75
2018-12-01T19:05:57.207Z,1.25
2018-12-01T19:08:25.598Z,0.45
2018-12-01T19:10:54.335Z,0.68
2018-12-01T19:13:22.930Z,0.68
2018-12-01T19:15:51.334Z,0.40
2018-12-01T19:18:20.331Z,3.92
2018-12-01T19:20:49.033Z,0.40
2018-12-01T19:23:18.302Z,0.95
2018-12-01T19:25:48.108Z,0.37
2018-12-01T19:28:16.668Z,0.60
2018-12-01T19:30:45.052Z,1.37
2018-12-01T19:33:16.152Z,0.30
2018-12-01T19:35:45.427Z,0.40
2018-12-01T19:38:17.775Z,0.40
2018-12-01T19:40:46.429Z,0.35
2018-12-01T19:43:14.817Z,0.80
2018-12-01T19:45:43.586Z,0.30
2018-12-01T19:48:12.289Z,0.80
2018-12-01T19:50:41.370Z,0.30
2018-12-01T19:53:13.312Z,0.42
2018-12-01T19:55:42.284Z,0.35
2018-12-01T19:58:15.640Z,0.30
2018-12-01T20:00:50.536Z,0.30
2018-12-01T20:03:20.432Z,0.40
2018-12-01T20:05:48.963Z,0.30
2018-12-01T20:08:18.530Z,0.33
2018-12-01T20:11:02.533Z,0.40
2018-12-01T20:13:40.267Z,2.95
2018-12-01T20:16:16.852Z,0.30
2018-12-01T20:18:45.597Z,0.30
2018-12-01T20:21:14.064Z,1.95
2018-12-01T20:23:42.491Z,0.60
2018-12-01T20:26:10.929Z,0.50
2018-12-01T20:28:39.322Z,0.20
2018-12-01T20:31:08.085Z,0.30
2018-12-01T20:33:36.451Z,0.30
2018-12-01T20:36:09.904Z,0.30
2018-12-01T20:38:44.677Z,0.33
2018-12-01T20:41:13.673Z,0.20
2018-12-01T20:43:42.076Z,0.30
2018-12-01T20:46:10.483Z,0.78
2018-12-01T20:48:38.889Z,0.80
2018-12-01T20:51:07.292Z,0.30
2018-12-01T20:53:36.193Z,0.40
2018-12-01T20:56:08.242Z,0.50
2018-12-01T20:58:36.987Z,0.30
2018-12-01T21:01:06.012Z,0.30
2018-12-01T21:03:34.411Z,0.30
2018-12-01T21:06:03.013Z,0.20
2018-12-01T21:08:31.941Z,0.35
2018-12-01T21:11:02.488Z,1.20
2018-12-01T21:13:30.875Z,0.88
2018-12-01T21:15:59.275Z,0.35
2018-12-01T21:18:27.675Z,0.20
2018-12-01T21:20:56.398Z,0.30
2018-12-01T21:23:24.781Z,0.20
2018-12-01T21:25:53.413Z,0.20
2018-12-01T21:28:22.379Z,0.30
2018-12-01T21:30:51.350Z,0.30
2018-12-01T21:33:23.770Z,8.03
2018-12-01T21:35:52.148Z,0.35
2018-12-01T21:38:20.545Z,0.35
2018-12-01T21:40:48.961Z,0.70
2018-12-01T21:43:17.386Z,0.30
2018-12-01T21:45:45.788Z,0.35
2018-12-01T21:48:14.822Z,0.30
2018-12-01T21:50:44.256Z,0.30
2018-12-01T21:53:15.689Z,0.53
2018-12-01T21:55:44.126Z,0.30
2018-12-01T21:58:12.518Z,0.30
2018-12-01T22:00:43.463Z,0.30
2018-12-01T22:03:13.420Z,0.20
2018-12-01T22:05:47.423Z,0.35
2018-12-01T22:08:16.529Z,0.30
2018-12-01T22:10:48.138Z,0.30
2018-12-01T22:13:16.538Z,0.30
2018-12-01T22:15:45.012Z,0.30
2018-12-01T22:18:13.623Z,0.30
2018-12-01T22:20:42.020Z,1.45
2018-12-01T22:23:10.721Z,0.37
2018-12-01T22:25:39.098Z,0.20
2018-12-01T22:28:09.298Z,0.30
2018-12-01T22:30:38.368Z,0.40
2018-12-01T22:33:12.626Z,0.40
2018-12-01T22:35:45.436Z,1.65
2018-12-01T22:38:13.809Z,0.75
2018-12-01T22:40:42.915Z,0.30
2018-12-01T22:43:11.903Z,0.57
2018-12-01T22:45:40.291Z,0.40
2018-12-01T22:48:12.018Z,0.30
2018-12-01T22:50:42.441Z,0.30
2018-12-01T22:53:10.916Z,0.20
2018-12-01T22:55:40.572Z,0.30
2018-12-01T22:58:10.491Z,0.25
2018-12-01T23:00:48.350Z,0.20
2018-12-01T23:03:17.059Z,0.57
2018-12-01T23:05:45.495Z,0.30
2018-12-01T23:08:15.326Z,0.68
2018-12-01T23:10:43.799Z,0.20
2018-12-01T23:13:12.181Z,0.30
2018-12-01T23:15:40.575Z,0.45
2018-12-01T23:18:10.579Z,0.20
2018-12-01T23:20:39.838Z,0.30
2018-12-01T23:23:08.725Z,0.30
2018-12-01T23:25:37.419Z,2.45
2018-12-01T23:28:06.967Z,0.30
2018-12-01T23:30:35.681Z,0.20
2018-12-01T23:33:07.881Z,0.28
2018-12-01T23:35:36.265Z,0.70
2018-12-01T23:38:04.814Z,0.42
2018-12-01T23:40:33.203Z,0.30
2018-12-01T23:43:01.605Z,0.30
2018-12-01T23:45:29.995Z,0.30
2018-12-01T23:47:58.391Z,0.20
2018-12-01T23:50:27.304Z,3.72
2018-12-01T23:53:02.294Z,0.55
2018-12-01T23:55:31.139Z,0.60
2018-12-01T23:57:59.544Z,0.53
